sensor_id;sensor_type;location;lat;lon;timestamp;temperature;humidity
33105;DHT22;19476;51.448;6.674;2022-09-09T00:00:37;21.70;55.50
33105;DHT22;19476;51.448;6.674;2022-09-09T00:03:16;21.80;55.90
33105;DHT22;19476;51.448;6.674;2022-09-09T00:05:59;21.80;55.30
33105;DHT22;19476;51.448;6.674;2022-09-09T00:08:45;21.80;55.20
33105;DHT22;19476;51.448;6.674;2022-09-09T00:11:24;21.80;55.40
33105;DHT22;19476;51.448;6.674;2022-09-09T00:14:00;21.80;55.20
33105;DHT22;19476;51.448;6.674;2022-09-09T00:16:35;21.80;54.90
33105;DHT22;19476;51.448;6.674;2022-09-09T00:19:24;21.90;55.20
33105;DHT22;19476;51.448;6.674;2022-09-09T00:27:21;21.80;55.30
33105;DHT22;19476;51.448;6.674;2022-09-09T00:30:12;21.80;55.40
33105;DHT22;19476;51.448;6.674;2022-09-09T00:32:39;21.80;55.30
33105;DHT22;19476;51.448;6.674;2022-09-09T00:35:26;21.80;55.10
33105;DHT22;19476;51.448;6.674;2022-09-09T00:38:00;21.70;55.70
33105;DHT22;19476;51.448;6.674;2022-09-09T00:40:42;21.70;55.60
33105;DHT22;19476;51.448;6.674;2022-09-09T00:43:24;21.60;55.70
33105;DHT22;19476;51.448;6.674;2022-09-09T00:46:28;21.70;55.70
33105;DHT22;19476;51.448;6.674;2022-09-09T00:58:07;21.60;56.20
33105;DHT22;19476;51.448;6.674;2022-09-09T01:00:48;21.50;55.60
33105;DHT22;19476;51.448;6.674;2022-09-09T01:06:52;21.60;56.50
33105;DHT22;19476;51.448;6.674;2022-09-09T01:09:38;21.50;56.40
33105;DHT22;19476;51.448;6.674;2022-09-09T01:12:24;21.50;56.50
33105;DHT22;19476;51.448;6.674;2022-09-09T01:15:00;21.50;56.00
33105;DHT22;19476;51.448;6.674;2022-09-09T01:20:54;21.50;56.50
33105;DHT22;19476;51.448;6.674;2022-09-09T01:26:19;21.40;56.00
33105;DHT22;19476;51.448;6.674;2022-09-09T01:28:50;21.40;56.40
33105;DHT22;19476;51.448;6.674;2022-09-09T01:31:39;21.40;56.00
33105;DHT22;19476;51.448;6.674;2022-09-09T01:34:14;21.40;56.50
33105;DHT22;19476;51.448;6.674;2022-09-09T01:36:57;21.30;56.50
33105;DHT22;19476;51.448;6.674;2022-09-09T01:39:33;21.30;56.50
33105;DHT22;19476;51.448;6.674;2022-09-09T01:42:01;21.30;56.10
33105;DHT22;19476;51.448;6.674;2022-09-09T01:44:30;21.30;56.20
33105;DHT22;19476;51.448;6.674;2022-09-09T01:46:57;21.30;56.50
33105;DHT22;19476;51.448;6.674;2022-09-09T01:49:30;21.20;56.30
33105;DHT22;19476;51.448;6.674;2022-09-09T01:51:58;21.30;57.00
33105;DHT22;19476;51.448;6.674;2022-09-09T01:54:29;21.20;56.50
33105;DHT22;19476;51.448;6.674;2022-09-09T01:57:12;21.20;57.00
33105;DHT22;19476;51.448;6.674;2022-09-09T02:00:07;21.20;57.30
33105;DHT22;19476;51.448;6.674;2022-09-09T02:08:57;21.20;57.70
33105;DHT22;19476;51.448;6.674;2022-09-09T02:11:25;21.20;57.60
33105;DHT22;19476;51.448;6.674;2022-09-09T02:14:04;21.20;57.10
33105;DHT22;19476;51.448;6.674;2022-09-09T02:16:46;21.20;57.70
33105;DHT22;19476;51.448;6.674;2022-09-09T02:19:29;21.20;57.90
33105;DHT22;19476;51.448;6.674;2022-09-09T02:22:00;21.20;57.80
33105;DHT22;19476;51.448;6.674;2022-09-09T02:24:33;21.20;57.20
33105;DHT22;19476;51.448;6.674;2022-09-09T02:27:02;21.20;57.60
33105;DHT22;19476;51.448;6.674;2022-09-09T02:29:31;21.20;57.50
33105;DHT22;19476;51.448;6.674;2022-09-09T02:32:01;21.20;57.60
33105;DHT22;19476;51.448;6.674;2022-09-09T02:34:31;21.20;57.20
33105;DHT22;19476;51.448;6.674;2022-09-09T02:37:24;21.20;57.20
33105;DHT22;19476;51.448;6.674;2022-09-09T02:39:54;21.30;57.70
33105;DHT22;19476;51.448;6.674;2022-09-09T02:42:41;21.30;57.00
33105;DHT22;19476;51.448;6.674;2022-09-09T02:45:09;21.30;57.40
33105;DHT22;19476;51.448;6.674;2022-09-09T02:50:32;21.30;57.10
33105;DHT22;19476;51.448;6.674;2022-09-09T02:53:18;21.20;56.90
33105;DHT22;19476;51.448;6.674;2022-09-09T02:56:01;21.20;57.20
33105;DHT22;19476;51.448;6.674;2022-09-09T02:58:36;21.20;57.00
33105;DHT22;19476;51.448;6.674;2022-09-09T03:01:03;21.20;56.70
33105;DHT22;19476;51.448;6.674;2022-09-09T03:03:34;21.20;56.70
33105;DHT22;19476;51.448;6.674;2022-09-09T03:06:02;21.20;57.00
33105;DHT22;19476;51.448;6.674;2022-09-09T03:08:28;21.20;56.80
33105;DHT22;19476;51.448;6.674;2022-09-09T03:11:14;21.20;56.70
33105;DHT22;19476;51.448;6.674;2022-09-09T03:13:40;21.20;57.30
33105;DHT22;19476;51.448;6.674;2022-09-09T03:16:10;21.20;56.80
33105;DHT22;19476;51.448;6.674;2022-09-09T03:18:36;21.20;57.10
33105;DHT22;19476;51.448;6.674;2022-09-09T03:21:02;21.20;56.80
33105;DHT22;19476;51.448;6.674;2022-09-09T03:23:28;21.20;56.90
33105;DHT22;19476;51.448;6.674;2022-09-09T03:26:31;21.20;56.90
33105;DHT22;19476;51.448;6.674;2022-09-09T03:29:04;21.20;57.40
33105;DHT22;19476;51.448;6.674;2022-09-09T03:31:34;21.20;57.20
33105;DHT22;19476;51.448;6.674;2022-09-09T03:34:02;21.20;57.00
33105;DHT22;19476;51.448;6.674;2022-09-09T03:36:31;21.20;57.00
33105;DHT22;19476;51.448;6.674;2022-09-09T03:39:17;21.20;57.00
33105;DHT22;19476;51.448;6.674;2022-09-09T09:19:05;23.30;48.40
33105;DHT22;19476;51.448;6.674;2022-09-09T09:29:15;23.30;47.70
33105;DHT22;19476;51.448;6.674;2022-09-09T10:09:47;23.60;46.90
33105;DHT22;19476;51.448;6.674;2022-09-09T10:42:30;24.00;44.10
33105;DHT22;19476;51.448;6.674;2022-09-09T10:45:32;24.00;44.30
33105;DHT22;19476;51.448;6.674;2022-09-09T12:22:38;24.40;44.50
33105;DHT22;19476;51.448;6.674;2022-09-09T12:28:18;24.40;44.40
33105;DHT22;19476;51.448;6.674;2022-09-09T12:31:05;24.40;46.80
33105;DHT22;19476;51.448;6.674;2022-09-09T12:33:39;24.40;47.50
33105;DHT22;19476;51.448;6.674;2022-09-09T12:36:18;24.40;47.30
33105;DHT22;19476;51.448;6.674;2022-09-09T12:38:52;24.40;46.70
33105;DHT22;19476;51.448;6.674;2022-09-09T12:41:23;24.40;46.80
33105;DHT22;19476;51.448;6.674;2022-09-09T12:44:04;24.30;47.00
33105;DHT22;19476;51.448;6.674;2022-09-09T12:46:41;24.30;47.80
33105;DHT22;19476;51.448;6.674;2022-09-09T12:51:53;24.20;49.40
33105;DHT22;19476;51.448;6.674;2022-09-09T12:54:46;24.20;48.80
33105;DHT22;19476;51.448;6.674;2022-09-09T12:57:14;24.20;48.90
33105;DHT22;19476;51.448;6.674;2022-09-09T12:59:42;24.10;49.20
33105;DHT22;19476;51.448;6.674;2022-09-09T13:02:26;24.10;49.50
33105;DHT22;19476;51.448;6.674;2022-09-09T13:04:54;24.10;50.40
33105;DHT22;19476;51.448;6.674;2022-09-09T13:07:21;24.10;50.30
33105;DHT22;19476;51.448;6.674;2022-09-09T13:52:18;25.80;45.60
33105;DHT22;19476;51.448;6.674;2022-09-09T13:55:48;25.90;45.70
33105;DHT22;19476;51.448;6.674;2022-09-09T13:58:15;26.00;45.20
33105;DHT22;19476;51.448;6.674;2022-09-09T14:00:55;26.10;45.60
33105;DHT22;19476;51.448;6.674;2022-09-09T14:03:27;26.10;44.60
33105;DHT22;19476;51.448;6.674;2022-09-09T14:05:53;26.10;44.60
33105;DHT22;19476;51.448;6.674;2022-09-09T14:08:26;26.10;44.50
33105;DHT22;19476;51.448;6.674;2022-09-09T14:10:58;26.10;43.80
33105;DHT22;19476;51.448;6.674;2022-09-09T14:13:25;26.10;44.30
33105;DHT22;19476;51.448;6.674;2022-09-09T14:15:51;26.00;44.00
33105;DHT22;19476;51.448;6.674;2022-09-09T14:18:20;25.90;44.10
33105;DHT22;19476;51.448;6.674;2022-09-09T14:20:48;25.80;44.10
33105;DHT22;19476;51.448;6.674;2022-09-09T14:23:16;25.50;44.20
33105;DHT22;19476;51.448;6.674;2022-09-09T14:25:43;25.60;44.60
33105;DHT22;19476;51.448;6.674;2022-09-09T14:28:40;25.50;44.70
33105;DHT22;19476;51.448;6.674;2022-09-09T14:31:07;25.40;44.90
33105;DHT22;19476;51.448;6.674;2022-09-09T14:33:36;25.30;45.30
33105;DHT22;19476;51.448;6.674;2022-09-09T14:36:04;25.20;46.30
33105;DHT22;19476;51.448;6.674;2022-09-09T14:38:32;25.00;46.20
33105;DHT22;19476;51.448;6.674;2022-09-09T14:41:09;24.80;46.00
33105;DHT22;19476;51.448;6.674;2022-09-09T14:43:38;24.60;46.00
33105;DHT22;19476;51.448;6.674;2022-09-09T14:46:11;24.40;46.90
33105;DHT22;19476;51.448;6.674;2022-09-09T14:48:40;24.20;47.50
33105;DHT22;19476;51.448;6.674;2022-09-09T14:51:12;24.00;48.10
33105;DHT22;19476;51.448;6.674;2022-09-09T14:53:42;23.80;48.60
33105;DHT22;19476;51.448;6.674;2022-09-09T14:56:09;23.70;48.50
33105;DHT22;19476;51.448;6.674;2022-09-09T15:02:30;23.50;49.80
33105;DHT22;19476;51.448;6.674;2022-09-09T15:05:15;23.40;49.80
33105;DHT22;19476;51.448;6.674;2022-09-09T15:07:52;23.30;50.00
33105;DHT22;19476;51.448;6.674;2022-09-09T15:10:36;23.20;50.50
33105;DHT22;19476;51.448;6.674;2022-09-09T15:13:02;23.20;52.00
33105;DHT22;19476;51.448;6.674;2022-09-09T15:15:30;23.10;51.20
33105;DHT22;19476;51.448;6.674;2022-09-09T15:17:56;23.10;51.60
33105;DHT22;19476;51.448;6.674;2022-09-09T15:20:23;23.00;51.50
33105;DHT22;19476;51.448;6.674;2022-09-09T15:22:50;23.00;52.10
33105;DHT22;19476;51.448;6.674;2022-09-09T15:25:38;23.00;52.30
33105;DHT22;19476;51.448;6.674;2022-09-09T15:28:17;23.00;53.30
33105;DHT22;19476;51.448;6.674;2022-09-09T15:30:53;23.10;54.50
33105;DHT22;19476;51.448;6.674;2022-09-09T15:33:36;23.40;54.30
33105;DHT22;19476;51.448;6.674;2022-09-09T15:39:46;24.00;55.00
33105;DHT22;19476;51.448;6.674;2022-09-09T15:42:13;24.50;54.40
33105;DHT22;19476;51.448;6.674;2022-09-09T15:45:09;24.90;53.20
33105;DHT22;19476;51.448;6.674;2022-09-09T16:25:01;24.50;50.20
33105;DHT22;19476;51.448;6.674;2022-09-09T16:30:49;24.20;50.30
33105;DHT22;19476;51.448;6.674;2022-09-09T16:33:25;24.00;50.30
33105;DHT22;19476;51.448;6.674;2022-09-09T16:35:52;23.90;50.70
33105;DHT22;19476;51.448;6.674;2022-09-09T16:38:18;23.80;50.60
33105;DHT22;19476;51.448;6.674;2022-09-09T16:41:09;23.70;50.90
33105;DHT22;19476;51.448;6.674;2022-09-09T16:43:36;23.60;51.60
33105;DHT22;19476;51.448;6.674;2022-09-09T16:46:03;23.60;51.50
33105;DHT22;19476;51.448;6.674;2022-09-09T16:48:33;23.50;51.80
33105;DHT22;19476;51.448;6.674;2022-09-09T16:51:07;23.50;52.40
33105;DHT22;19476;51.448;6.674;2022-09-09T16:56:21;23.40;52.80
33105;DHT22;19476;51.448;6.674;2022-09-09T16:59:03;23.30;53.30
33105;DHT22;19476;51.448;6.674;2022-09-09T17:01:43;23.30;53.30
33105;DHT22;19476;51.448;6.674;2022-09-09T17:04:16;23.20;54.20
33105;DHT22;19476;51.448;6.674;2022-09-09T17:06:49;23.20;54.00
33105;DHT22;19476;51.448;6.674;2022-09-09T17:09:25;23.20;54.00
33105;DHT22;19476;51.448;6.674;2022-09-09T17:11:55;23.20;54.50
33105;DHT22;19476;51.448;6.674;2022-09-09T17:14:22;23.10;54.10
33105;DHT22;19476;51.448;6.674;2022-09-09T17:16:49;23.10;54.30
33105;DHT22;19476;51.448;6.674;2022-09-09T17:19:16;23.10;54.30
33105;DHT22;19476;51.448;6.674;2022-09-09T17:21:42;23.00;54.50
33105;DHT22;19476;51.448;6.674;2022-09-09T17:24:10;23.00;54.50
33105;DHT22;19476;51.448;6.674;2022-09-09T17:26:56;22.90;54.60
33105;DHT22;19476;51.448;6.674;2022-09-09T17:33:13;22.90;55.30
33105;DHT22;19476;51.448;6.674;2022-09-09T18:22:59;22.20;57.80
33105;DHT22;19476;51.448;6.674;2022-09-09T18:25:25;22.20;57.20
33105;DHT22;19476;51.448;6.674;2022-09-09T18:27:51;22.20;57.40
33105;DHT22;19476;51.448;6.674;2022-09-09T18:30:18;22.20;57.50
33105;DHT22;19476;51.448;6.674;2022-09-09T18:32:47;22.20;57.60
33105;DHT22;19476;51.448;6.674;2022-09-09T18:35:13;22.20;57.80
33105;DHT22;19476;51.448;6.674;2022-09-09T18:37:39;22.20;57.80
33105;DHT22;19476;51.448;6.674;2022-09-09T18:40:06;22.20;57.80
33105;DHT22;19476;51.448;6.674;2022-09-09T18:42:32;22.10;57.80
33105;DHT22;19476;51.448;6.674;2022-09-09T18:44:58;22.20;57.90
33105;DHT22;19476;51.448;6.674;2022-09-09T18:47:28;22.10;57.80
33105;DHT22;19476;51.448;6.674;2022-09-09T18:49:55;22.10;57.90
33105;DHT22;19476;51.448;6.674;2022-09-09T18:52:21;22.10;57.70
33105;DHT22;19476;51.448;6.674;2022-09-09T18:54:48;22.10;57.60
33105;DHT22;19476;51.448;6.674;2022-09-09T18:57:17;22.10;57.60
33105;DHT22;19476;51.448;6.674;2022-09-09T18:59:45;22.10;57.70
33105;DHT22;19476;51.448;6.674;2022-09-09T19:02:16;22.10;57.60
33105;DHT22;19476;51.448;6.674;2022-09-09T19:04:45;22.10;57.50
33105;DHT22;19476;51.448;6.674;2022-09-09T19:07:12;22.00;57.40
33105;DHT22;19476;51.448;6.674;2022-09-09T19:09:38;22.10;57.50
33105;DHT22;19476;51.448;6.674;2022-09-09T19:12:05;22.00;57.40
33105;DHT22;19476;51.448;6.674;2022-09-09T19:14:32;22.00;57.30
33105;DHT22;19476;51.448;6.674;2022-09-09T19:16:58;22.00;57.80
33105;DHT22;19476;51.448;6.674;2022-09-09T19:19:27;22.00;57.10
33105;DHT22;19476;51.448;6.674;2022-09-09T19:21:53;22.00;57.10
33105;DHT22;19476;51.448;6.674;2022-09-09T19:24:32;22.00;56.90
33105;DHT22;19476;51.448;6.674;2022-09-09T19:27:00;22.00;57.00
33105;DHT22;19476;51.448;6.674;2022-09-09T19:29:30;21.90;57.00
33105;DHT22;19476;51.448;6.674;2022-09-09T19:31:58;21.90;56.90
33105;DHT22;19476;51.448;6.674;2022-09-09T19:34:25;21.90;56.90
33105;DHT22;19476;51.448;6.674;2022-09-09T19:36:51;21.90;56.60
33105;DHT22;19476;51.448;6.674;2022-09-09T19:39:18;21.90;56.40
33105;DHT22;19476;51.448;6.674;2022-09-09T19:41:44;21.90;56.40
33105;DHT22;19476;51.448;6.674;2022-09-09T19:44:14;21.90;56.30
33105;DHT22;19476;51.448;6.674;2022-09-09T19:46:42;21.90;56.50
33105;DHT22;19476;51.448;6.674;2022-09-09T19:49:09;21.90;56.40
33105;DHT22;19476;51.448;6.674;2022-09-09T19:51:35;21.90;56.40
33105;DHT22;19476;51.448;6.674;2022-09-09T19:54:07;21.90;56.50
33105;DHT22;19476;51.448;6.674;2022-09-09T19:56:35;21.90;56.80
33105;DHT22;19476;51.448;6.674;2022-09-09T19:59:02;21.90;56.60
33105;DHT22;19476;51.448;6.674;2022-09-09T20:01:36;21.90;56.70
33105;DHT22;19476;51.448;6.674;2022-09-09T20:04:04;21.90;56.90
33105;DHT22;19476;51.448;6.674;2022-09-09T20:06:33;21.90;56.80
33105;DHT22;19476;51.448;6.674;2022-09-09T20:09:00;21.90;57.00
33105;DHT22;19476;51.448;6.674;2022-09-09T20:11:27;21.90;56.90
33105;DHT22;19476;51.448;6.674;2022-09-09T20:13:53;21.90;57.00
33105;DHT22;19476;51.448;6.674;2022-09-09T20:16:30;21.90;57.10
33105;DHT22;19476;51.448;6.674;2022-09-09T20:18:59;22.00;57.70
33105;DHT22;19476;51.448;6.674;2022-09-09T20:21:31;22.00;57.50
33105;DHT22;19476;51.448;6.674;2022-09-09T20:23:59;22.00;57.70
33105;DHT22;19476;51.448;6.674;2022-09-09T20:26:26;22.00;57.50
33105;DHT22;19476;51.448;6.674;2022-09-09T20:28:54;22.00;57.50
33105;DHT22;19476;51.448;6.674;2022-09-09T20:31:28;22.00;57.60
33105;DHT22;19476;51.448;6.674;2022-09-09T20:33:56;22.10;58.20
33105;DHT22;19476;51.448;6.674;2022-09-09T20:36:33;22.10;57.60
33105;DHT22;19476;51.448;6.674;2022-09-09T20:39:11;22.10;57.60
33105;DHT22;19476;51.448;6.674;2022-09-09T20:41:38;22.00;57.90
33105;DHT22;19476;51.448;6.674;2022-09-09T20:44:07;22.00;57.60
33105;DHT22;19476;51.448;6.674;2022-09-09T20:46:39;22.00;57.70
33105;DHT22;19476;51.448;6.674;2022-09-09T20:49:07;22.00;57.80
33105;DHT22;19476;51.448;6.674;2022-09-09T20:51:34;22.00;57.60
33105;DHT22;19476;51.448;6.674;2022-09-09T20:54:03;22.00;57.70
33105;DHT22;19476;51.448;6.674;2022-09-09T20:56:35;21.90;57.70
33105;DHT22;19476;51.448;6.674;2022-09-09T20:59:05;21.90;57.90
33105;DHT22;19476;51.448;6.674;2022-09-09T21:01:32;21.90;57.70
33105;DHT22;19476;51.448;6.674;2022-09-09T21:03:58;22.10;58.40
33105;DHT22;19476;51.448;6.674;2022-09-09T21:06:24;21.90;57.70
33105;DHT22;19476;51.448;6.674;2022-09-09T21:08:51;21.90;57.80
33105;DHT22;19476;51.448;6.674;2022-09-09T21:11:17;21.80;57.70
33105;DHT22;19476;51.448;6.674;2022-09-09T21:13:43;21.60;57.70
33105;DHT22;19476;51.448;6.674;2022-09-09T21:16:12;21.80;57.80
33105;DHT22;19476;51.448;6.674;2022-09-09T21:18:39;21.80;58.00
33105;DHT22;19476;51.448;6.674;2022-09-09T21:21:06;21.70;57.80
33105;DHT22;19476;51.448;6.674;2022-09-09T21:23:33;21.70;58.00
33105;DHT22;19476;51.448;6.674;2022-09-09T21:26:00;21.70;58.00
33105;DHT22;19476;51.448;6.674;2022-09-09T21:28:26;21.70;58.00
33105;DHT22;19476;51.448;6.674;2022-09-09T21:30:53;21.60;57.90
33105;DHT22;19476;51.448;6.674;2022-09-09T21:33:21;21.60;58.00
33105;DHT22;19476;51.448;6.674;2022-09-09T21:35:49;21.60;58.00
33105;DHT22;19476;51.448;6.674;2022-09-09T21:38:17;21.50;58.00
33105;DHT22;19476;51.448;6.674;2022-09-09T21:40:44;21.50;58.00
33105;DHT22;19476;51.448;6.674;2022-09-09T21:43:12;21.50;58.10
33105;DHT22;19476;51.448;6.674;2022-09-09T21:45:39;21.50;58.10
33105;DHT22;19476;51.448;6.674;2022-09-09T21:48:10;21.40;58.20
33105;DHT22;19476;51.448;6.674;2022-09-09T21:50:42;21.40;58.20
33105;DHT22;19476;51.448;6.674;2022-09-09T21:53:09;21.50;58.40
33105;DHT22;19476;51.448;6.674;2022-09-09T21:55:39;21.40;58.20
33105;DHT22;19476;51.448;6.674;2022-09-09T21:58:09;21.40;58.40
33105;DHT22;19476;51.448;6.674;2022-09-09T22:00:39;21.40;58.50
33105;DHT22;19476;51.448;6.674;2022-09-09T22:03:06;21.40;58.40
33105;DHT22;19476;51.448;6.674;2022-09-09T22:05:37;21.40;58.40
33105;DHT22;19476;51.448;6.674;2022-09-09T22:08:03;21.40;58.50
33105;DHT22;19476;51.448;6.674;2022-09-09T22:10:29;21.40;58.50
33105;DHT22;19476;51.448;6.674;2022-09-09T22:12:55;21.40;58.50
33105;DHT22;19476;51.448;6.674;2022-09-09T22:15:22;21.40;58.50
33105;DHT22;19476;51.448;6.674;2022-09-09T22:17:48;21.40;58.60
33105;DHT22;19476;51.448;6.674;2022-09-09T22:20:14;21.40;58.50
33105;DHT22;19476;51.448;6.674;2022-09-09T22:22:40;21.40;58.50
33105;DHT22;19476;51.448;6.674;2022-09-09T22:25:07;21.40;58.50
33105;DHT22;19476;51.448;6.674;2022-09-09T22:27:33;21.40;58.50
33105;DHT22;19476;51.448;6.674;2022-09-09T22:29:58;21.40;58.40
33105;DHT22;19476;51.448;6.674;2022-09-09T22:32:24;21.40;58.40
33105;DHT22;19476;51.448;6.674;2022-09-09T22:34:51;21.20;58.30
33105;DHT22;19476;51.448;6.674;2022-09-09T22:37:17;21.30;58.40
33105;DHT22;19476;51.448;6.674;2022-09-09T22:39:42;21.30;58.40
33105;DHT22;19476;51.448;6.674;2022-09-09T22:42:08;21.30;58.40
33105;DHT22;19476;51.448;6.674;2022-09-09T22:44:34;21.30;58.40
33105;DHT22;19476;51.448;6.674;2022-09-09T22:47:00;21.30;58.40
33105;DHT22;19476;51.448;6.674;2022-09-09T22:49:26;21.20;58.40
33105;DHT22;19476;51.448;6.674;2022-09-09T22:51:52;21.30;58.40
33105;DHT22;19476;51.448;6.674;2022-09-09T22:54:18;21.20;58.50
33105;DHT22;19476;51.448;6.674;2022-09-09T22:56:50;21.20;58.50
33105;DHT22;19476;51.448;6.674;2022-09-09T22:59:17;21.20;59.10
33105;DHT22;19476;51.448;6.674;2022-09-09T23:01:43;21.20;58.60
33105;DHT22;19476;51.448;6.674;2022-09-09T23:04:09;21.10;58.50
33105;DHT22;19476;51.448;6.674;2022-09-09T23:06:36;21.10;58.40
33105;DHT22;19476;51.448;6.674;2022-09-09T23:09:04;21.10;58.40
33105;DHT22;19476;51.448;6.674;2022-09-09T23:11:33;21.10;58.50
33105;DHT22;19476;51.448;6.674;2022-09-09T23:14:01;21.10;58.60
33105;DHT22;19476;51.448;6.674;2022-09-09T23:16:30;21.00;58.50
33105;DHT22;19476;51.448;6.674;2022-09-09T23:18:58;21.00;58.50
33105;DHT22;19476;51.448;6.674;2022-09-09T23:21:27;21.00;58.50
33105;DHT22;19476;51.448;6.674;2022-09-09T23:23:55;21.00;58.60
33105;DHT22;19476;51.448;6.674;2022-09-09T23:26:22;20.90;58.50
33105;DHT22;19476;51.448;6.674;2022-09-09T23:28:50;21.00;58.50
33105;DHT22;19476;51.448;6.674;2022-09-09T23:31:19;20.90;58.40
33105;DHT22;19476;51.448;6.674;2022-09-09T23:33:46;20.90;58.50
33105;DHT22;19476;51.448;6.674;2022-09-09T23:36:17;20.90;58.50
33105;DHT22;19476;51.448;6.674;2022-09-09T23:38:44;20.90;58.80
33105;DHT22;19476;51.448;6.674;2022-09-09T23:41:13;20.90;58.60
33105;DHT22;19476;51.448;6.674;2022-09-09T23:43:39;20.90;58.70
33105;DHT22;19476;51.448;6.674;2022-09-09T23:46:06;21.00;58.70
33105;DHT22;19476;51.448;6.674;2022-09-09T23:48:33;21.00;58.80
33105;DHT22;19476;51.448;6.674;2022-09-09T23:51:00;20.90;58.60
33105;DHT22;19476;51.448;6.674;2022-09-09T23:53:26;21.00;58.70
33105;DHT22;19476;51.448;6.674;2022-09-09T23:55:52;21.00;58.60
33105;DHT22;19476;51.448;6.674;2022-09-09T23:58:18;21.00;58.70
